sensor_id;sensor_type;location;lat;lon;timestamp;temperature;humidity
30047;DHT22;16878;52.542;13.426;2023-02-18T00:00:19;7.50;99.90
30047;DHT22;16878;52.542;13.426;2023-02-18T00:02:46;7.60;99.90
30047;DHT22;16878;52.542;13.426;2023-02-18T00:05:12;7.60;99.90
30047;DHT22;16878;52.542;13.426;2023-02-18T00:07:39;7.60;99.90
30047;DHT22;16878;52.542;13.426;2023-02-18T00:10:12;7.60;99.90
30047;DHT22;16878;52.542;13.426;2023-02-18T00:12:38;7.50;99.90
30047;DHT22;16878;52.542;13.426;2023-02-18T00:15:04;7.60;99.90
30047;DHT22;16878;52.542;13.426;2023-02-18T00:17:30;7.60;99.90
30047;DHT22;16878;52.542;13.426;2023-02-18T00:19:56;7.60;99.90
30047;DHT22;16878;52.542;13.426;2023-02-18T00:22:24;7.60;99.90
30047;DHT22;16878;52.542;13.426;2023-02-18T00:24:50;7.50;99.90
30047;DHT22;16878;52.542;13.426;2023-02-18T00:27:16;7.50;99.90
30047;DHT22;16878;52.542;13.426;2023-02-18T00:29:42;7.50;99.90
30047;DHT22;16878;52.542;13.426;2023-02-18T00:32:08;7.50;99.90
30047;DHT22;16878;52.542;13.426;2023-02-18T00:34:33;7.40;99.90
30047;DHT22;16878;52.542;13.426;2023-02-18T00:36:59;7.40;99.90
30047;DHT22;16878;52.542;13.426;2023-02-18T00:39:25;7.50;99.90
30047;DHT22;16878;52.542;13.426;2023-02-18T00:41:51;7.30;99.90
30047;DHT22;16878;52.542;13.426;2023-02-18T00:44:16;7.30;99.90
30047;DHT22;16878;52.542;13.426;2023-02-18T00:46:42;7.30;99.90
30047;DHT22;16878;52.542;13.426;2023-02-18T00:49:09;7.20;99.90
30047;DHT22;16878;52.542;13.426;2023-02-18T00:51:35;7.20;99.90
30047;DHT22;16878;52.542;13.426;2023-02-18T00:54:01;7.10;99.90
30047;DHT22;16878;52.542;13.426;2023-02-18T00:56:27;7.20;99.90
30047;DHT22;16878;52.542;13.426;2023-02-18T00:58:53;7.10;99.90
30047;DHT22;16878;52.542;13.426;2023-02-18T01:01:19;7.10;99.90
30047;DHT22;16878;52.542;13.426;2023-02-18T01:03:45;7.10;99.90
30047;DHT22;16878;52.542;13.426;2023-02-18T01:06:11;7.10;99.90
30047;DHT22;16878;52.542;13.426;2023-02-18T01:08:39;7.10;99.90
30047;DHT22;16878;52.542;13.426;2023-02-18T01:11:07;7.00;99.90
30047;DHT22;16878;52.542;13.426;2023-02-18T01:13:33;7.00;99.90
30047;DHT22;16878;52.542;13.426;2023-02-18T01:15:59;7.00;99.90
30047;DHT22;16878;52.542;13.426;2023-02-18T01:18:26;7.00;99.90
30047;DHT22;16878;52.542;13.426;2023-02-18T01:20:52;7.00;99.90
30047;DHT22;16878;52.542;13.426;2023-02-18T01:23:18;6.90;99.90
30047;DHT22;16878;52.542;13.426;2023-02-18T01:25:44;7.00;99.90
30047;DHT22;16878;52.542;13.426;2023-02-18T01:28:11;6.90;99.90
30047;DHT22;16878;52.542;13.426;2023-02-18T01:30:38;6.90;99.90
30047;DHT22;16878;52.542;13.426;2023-02-18T01:33:04;6.90;99.90
30047;DHT22;16878;52.542;13.426;2023-02-18T01:35:30;6.90;99.90
30047;DHT22;16878;52.542;13.426;2023-02-18T01:37:56;6.90;99.90
30047;DHT22;16878;52.542;13.426;2023-02-18T01:40:24;6.90;99.90
30047;DHT22;16878;52.542;13.426;2023-02-18T01:42:50;6.90;99.90
30047;DHT22;16878;52.542;13.426;2023-02-18T01:48:08;6.90;99.90
30047;DHT22;16878;52.542;13.426;2023-02-18T01:50:37;6.90;99.90
30047;DHT22;16878;52.542;13.426;2023-02-18T01:53:05;6.90;99.90
30047;DHT22;16878;52.542;13.426;2023-02-18T01:55:33;6.90;99.90
30047;DHT22;16878;52.542;13.426;2023-02-18T01:58:00;6.90;99.90
30047;DHT22;16878;52.542;13.426;2023-02-18T02:00:26;6.90;99.90
30047;DHT22;16878;52.542;13.426;2023-02-18T02:02:52;6.90;99.90
30047;DHT22;16878;52.542;13.426;2023-02-18T02:05:20;6.90;99.90
30047;DHT22;16878;52.542;13.426;2023-02-18T02:07:51;6.90;99.90
30047;DHT22;16878;52.542;13.426;2023-02-18T02:10:18;6.90;99.90
30047;DHT22;16878;52.542;13.426;2023-02-18T02:13:00;6.80;99.90
30047;DHT22;16878;52.542;13.426;2023-02-18T02:15:49;6.90;99.90
30047;DHT22;16878;52.542;13.426;2023-02-18T02:27:11;6.90;99.90
30047;DHT22;16878;52.542;13.426;2023-02-18T02:32:50;6.90;99.90
30047;DHT22;16878;52.542;13.426;2023-02-18T02:38:14;6.70;99.90
30047;DHT22;16878;52.542;13.426;2023-02-18T02:40:57;6.80;99.90
30047;DHT22;16878;52.542;13.426;2023-02-18T02:46:01;6.80;99.90
30047;DHT22;16878;52.542;13.426;2023-02-18T02:49:02;6.80;99.90
30047;DHT22;16878;52.542;13.426;2023-02-18T02:51:46;6.80;99.90
30047;DHT22;16878;52.542;13.426;2023-02-18T02:54:21;6.80;99.90
30047;DHT22;16878;52.542;13.426;2023-02-18T02:56:47;6.70;99.90
30047;DHT22;16878;52.542;13.426;2023-02-18T02:59:21;6.70;99.90
30047;DHT22;16878;52.542;13.426;2023-02-18T03:07:32;6.60;99.90
30047;DHT22;16878;52.542;13.426;2023-02-18T03:10:07;6.60;99.90
30047;DHT22;16878;52.542;13.426;2023-02-18T03:23:28;6.50;99.90
30047;DHT22;16878;52.542;13.426;2023-02-18T03:25:58;6.50;99.90
30047;DHT22;16878;52.542;13.426;2023-02-18T03:28:27;6.50;99.90
30047;DHT22;16878;52.542;13.426;2023-02-18T03:30:59;6.50;99.90
30047;DHT22;16878;52.542;13.426;2023-02-18T03:33:34;6.50;99.90
30047;DHT22;16878;52.542;13.426;2023-02-18T03:36:02;6.50;99.90
30047;DHT22;16878;52.542;13.426;2023-02-18T03:38:37;6.50;99.90
30047;DHT22;16878;52.542;13.426;2023-02-18T03:41:04;6.60;99.90
30047;DHT22;16878;52.542;13.426;2023-02-18T03:43:30;6.60;99.90
30047;DHT22;16878;52.542;13.426;2023-02-18T03:45:56;6.70;99.90
30047;DHT22;16878;52.542;13.426;2023-02-18T03:48:22;6.60;99.90
30047;DHT22;16878;52.542;13.426;2023-02-18T03:50:48;6.70;99.90
30047;DHT22;16878;52.542;13.426;2023-02-18T03:53:14;6.60;99.90
30047;DHT22;16878;52.542;13.426;2023-02-18T03:55:39;6.60;99.90
30047;DHT22;16878;52.542;13.426;2023-02-18T03:58:05;6.60;99.90
30047;DHT22;16878;52.542;13.426;2023-02-18T04:00:31;6.60;99.90
30047;DHT22;16878;52.542;13.426;2023-02-18T04:02:56;6.50;99.90
30047;DHT22;16878;52.542;13.426;2023-02-18T04:05:22;6.50;99.90
30047;DHT22;16878;52.542;13.426;2023-02-18T04:07:48;6.50;99.90
30047;DHT22;16878;52.542;13.426;2023-02-18T04:10:13;6.50;99.90
30047;DHT22;16878;52.542;13.426;2023-02-18T04:12:39;6.50;99.90
30047;DHT22;16878;52.542;13.426;2023-02-18T04:15:05;6.50;99.90
30047;DHT22;16878;52.542;13.426;2023-02-18T04:17:32;6.50;99.90
30047;DHT22;16878;52.542;13.426;2023-02-18T04:19:57;6.50;99.90
30047;DHT22;16878;52.542;13.426;2023-02-18T04:22:23;6.50;99.90
30047;DHT22;16878;52.542;13.426;2023-02-18T04:24:49;6.50;99.90
30047;DHT22;16878;52.542;13.426;2023-02-18T04:27:15;6.50;99.90
30047;DHT22;16878;52.542;13.426;2023-02-18T04:29:41;6.50;99.90
30047;DHT22;16878;52.542;13.426;2023-02-18T04:32:06;6.50;99.90
30047;DHT22;16878;52.542;13.426;2023-02-18T04:34:32;6.50;99.90
30047;DHT22;16878;52.542;13.426;2023-02-18T04:36:58;6.50;99.90
30047;DHT22;16878;52.542;13.426;2023-02-18T04:39:23;6.40;99.90
30047;DHT22;16878;52.542;13.426;2023-02-18T04:41:50;6.40;99.90
30047;DHT22;16878;52.542;13.426;2023-02-18T04:44:15;6.40;99.90
30047;DHT22;16878;52.542;13.426;2023-02-18T04:46:41;6.40;99.90
30047;DHT22;16878;52.542;13.426;2023-02-18T04:49:07;6.30;99.90
30047;DHT22;16878;52.542;13.426;2023-02-18T04:51:32;6.30;99.90
30047;DHT22;16878;52.542;13.426;2023-02-18T04:53:58;6.30;99.90
30047;DHT22;16878;52.542;13.426;2023-02-18T04:56:24;6.30;99.90
30047;DHT22;16878;52.542;13.426;2023-02-18T04:58:49;6.30;99.90
30047;DHT22;16878;52.542;13.426;2023-02-18T05:01:15;6.30;99.90
30047;DHT22;16878;52.542;13.426;2023-02-18T05:03:40;6.30;99.90
30047;DHT22;16878;52.542;13.426;2023-02-18T05:06:06;6.20;99.90
30047;DHT22;16878;52.542;13.426;2023-02-18T05:08:32;6.30;99.90
30047;DHT22;16878;52.542;13.426;2023-02-18T05:10:57;6.20;99.90
30047;DHT22;16878;52.542;13.426;2023-02-18T05:13:23;6.30;99.90
30047;DHT22;16878;52.542;13.426;2023-02-18T05:15:49;6.20;99.90
30047;DHT22;16878;52.542;13.426;2023-02-18T05:18:15;6.30;99.90
30047;DHT22;16878;52.542;13.426;2023-02-18T05:20:40;6.30;99.90
30047;DHT22;16878;52.542;13.426;2023-02-18T05:23:06;6.40;99.90
30047;DHT22;16878;52.542;13.426;2023-02-18T05:25:32;6.30;99.90
30047;DHT22;16878;52.542;13.426;2023-02-18T05:27:58;6.50;99.90
30047;DHT22;16878;52.542;13.426;2023-02-18T05:30:23;6.50;99.90
30047;DHT22;16878;52.542;13.426;2023-02-18T05:32:49;6.50;99.90
30047;DHT22;16878;52.542;13.426;2023-02-18T05:35:15;6.50;99.90
30047;DHT22;16878;52.542;13.426;2023-02-18T05:37:40;6.60;99.90
30047;DHT22;16878;52.542;13.426;2023-02-18T05:40:06;6.60;99.90
30047;DHT22;16878;52.542;13.426;2023-02-18T05:42:32;6.70;99.90
30047;DHT22;16878;52.542;13.426;2023-02-18T05:44:58;6.70;99.90
30047;DHT22;16878;52.542;13.426;2023-02-18T05:47:24;6.70;99.90
30047;DHT22;16878;52.542;13.426;2023-02-18T05:49:49;6.70;99.90
30047;DHT22;16878;52.542;13.426;2023-02-18T05:52:16;6.80;99.90
30047;DHT22;16878;52.542;13.426;2023-02-18T05:54:42;6.80;99.90
30047;DHT22;16878;52.542;13.426;2023-02-18T05:57:09;6.80;99.90
30047;DHT22;16878;52.542;13.426;2023-02-18T05:59:35;6.80;99.90
30047;DHT22;16878;52.542;13.426;2023-02-18T06:02:01;6.80;99.90
30047;DHT22;16878;52.542;13.426;2023-02-18T06:04:27;6.90;99.90
30047;DHT22;16878;52.542;13.426;2023-02-18T06:06:52;6.90;99.90
30047;DHT22;16878;52.542;13.426;2023-02-18T06:09:19;6.90;99.90
30047;DHT22;16878;52.542;13.426;2023-02-18T06:11:44;6.90;99.90
30047;DHT22;16878;52.542;13.426;2023-02-18T06:14:10;6.90;99.90
30047;DHT22;16878;52.542;13.426;2023-02-18T06:16:36;7.00;99.90
30047;DHT22;16878;52.542;13.426;2023-02-18T06:19:02;7.00;99.90
30047;DHT22;16878;52.542;13.426;2023-02-18T06:21:31;7.00;99.90
30047;DHT22;16878;52.542;13.426;2023-02-18T06:23:56;7.00;99.90
30047;DHT22;16878;52.542;13.426;2023-02-18T06:26:22;7.00;99.90
30047;DHT22;16878;52.542;13.426;2023-02-18T06:28:48;7.00;99.90
30047;DHT22;16878;52.542;13.426;2023-02-18T06:31:13;7.00;99.90
30047;DHT22;16878;52.542;13.426;2023-02-18T06:33:39;7.00;99.90
30047;DHT22;16878;52.542;13.426;2023-02-18T06:36:07;7.10;99.90
30047;DHT22;16878;52.542;13.426;2023-02-18T06:38:34;7.10;99.90
30047;DHT22;16878;52.542;13.426;2023-02-18T06:41:01;7.10;99.90
30047;DHT22;16878;52.542;13.426;2023-02-18T06:43:26;7.10;99.90
30047;DHT22;16878;52.542;13.426;2023-02-18T06:45:52;7.20;99.90
30047;DHT22;16878;52.542;13.426;2023-02-18T06:48:17;7.20;99.90
30047;DHT22;16878;52.542;13.426;2023-02-18T06:50:47;7.20;99.90
30047;DHT22;16878;52.542;13.426;2023-02-18T06:53:13;7.20;99.90
30047;DHT22;16878;52.542;13.426;2023-02-18T06:55:38;7.20;99.90
30047;DHT22;16878;52.542;13.426;2023-02-18T06:58:04;7.20;99.90
30047;DHT22;16878;52.542;13.426;2023-02-18T07:00:30;7.30;99.90
30047;DHT22;16878;52.542;13.426;2023-02-18T07:02:56;7.30;99.90
30047;DHT22;16878;52.542;13.426;2023-02-18T07:05:22;7.30;99.90
30047;DHT22;16878;52.542;13.426;2023-02-18T07:07:48;7.40;99.90
30047;DHT22;16878;52.542;13.426;2023-02-18T07:10:13;7.40;99.90
30047;DHT22;16878;52.542;13.426;2023-02-18T07:12:39;7.40;99.90
30047;DHT22;16878;52.542;13.426;2023-02-18T07:15:05;7.40;99.90
30047;DHT22;16878;52.542;13.426;2023-02-18T07:17:31;7.50;99.90
30047;DHT22;16878;52.542;13.426;2023-02-18T07:19:58;7.50;99.90
30047;DHT22;16878;52.542;13.426;2023-02-18T07:22:25;7.50;99.90
30047;DHT22;16878;52.542;13.426;2023-02-18T07:24:51;7.50;99.90
30047;DHT22;16878;52.542;13.426;2023-02-18T07:27:18;7.50;99.90
30047;DHT22;16878;52.542;13.426;2023-02-18T07:29:44;7.60;99.90
30047;DHT22;16878;52.542;13.426;2023-02-18T07:32:14;7.60;99.90
30047;DHT22;16878;52.542;13.426;2023-02-18T07:34:40;7.60;99.90
30047;DHT22;16878;52.542;13.426;2023-02-18T07:37:05;7.60;99.90
30047;DHT22;16878;52.542;13.426;2023-02-18T07:39:39;7.70;99.90
30047;DHT22;16878;52.542;13.426;2023-02-18T07:42:05;7.70;99.90
30047;DHT22;16878;52.542;13.426;2023-02-18T07:44:31;7.70;99.90
30047;DHT22;16878;52.542;13.426;2023-02-18T07:46:57;7.70;99.90
30047;DHT22;16878;52.542;13.426;2023-02-18T07:49:22;7.80;99.90
30047;DHT22;16878;52.542;13.426;2023-02-18T07:51:49;7.90;99.90
30047;DHT22;16878;52.542;13.426;2023-02-18T07:54:15;7.90;99.90
30047;DHT22;16878;52.542;13.426;2023-02-18T07:56:42;8.00;99.90
30047;DHT22;16878;52.542;13.426;2023-02-18T07:59:09;8.00;99.90
30047;DHT22;16878;52.542;13.426;2023-02-18T08:01:34;8.00;99.90
30047;DHT22;16878;52.542;13.426;2023-02-18T08:04:00;8.00;99.90
30047;DHT22;16878;52.542;13.426;2023-02-18T08:06:35;7.90;99.90
30047;DHT22;16878;52.542;13.426;2023-02-18T08:09:03;7.90;99.90
30047;DHT22;16878;52.542;13.426;2023-02-18T08:11:33;8.00;99.90
30047;DHT22;16878;52.542;13.426;2023-02-18T08:13:59;8.00;99.90
30047;DHT22;16878;52.542;13.426;2023-02-18T08:16:25;8.10;99.90
30047;DHT22;16878;52.542;13.426;2023-02-18T08:18:55;8.00;99.90
30047;DHT22;16878;52.542;13.426;2023-02-18T08:21:22;7.90;99.90
30047;DHT22;16878;52.542;13.426;2023-02-18T08:23:51;7.90;99.90
30047;DHT22;16878;52.542;13.426;2023-02-18T08:26:19;7.90;99.90
30047;DHT22;16878;52.542;13.426;2023-02-18T08:28:48;8.00;99.90
30047;DHT22;16878;52.542;13.426;2023-02-18T08:31:28;8.00;99.90
30047;DHT22;16878;52.542;13.426;2023-02-18T08:33:56;7.90;99.90
30047;DHT22;16878;52.542;13.426;2023-02-18T08:36:26;7.90;99.90
30047;DHT22;16878;52.542;13.426;2023-02-18T08:38:53;7.90;99.90
30047;DHT22;16878;52.542;13.426;2023-02-18T08:41:22;8.00;99.90
30047;DHT22;16878;52.542;13.426;2023-02-18T08:43:48;8.10;99.90
30047;DHT22;16878;52.542;13.426;2023-02-18T08:46:15;8.10;99.90
30047;DHT22;16878;52.542;13.426;2023-02-18T08:48:41;8.10;99.90
30047;DHT22;16878;52.542;13.426;2023-02-18T08:51:15;8.20;99.90
30047;DHT22;16878;52.542;13.426;2023-02-18T08:53:42;8.10;99.90
30047;DHT22;16878;52.542;13.426;2023-02-18T08:56:08;8.00;99.90
30047;DHT22;16878;52.542;13.426;2023-02-18T08:58:35;8.00;99.90
30047;DHT22;16878;52.542;13.426;2023-02-18T09:01:04;8.00;99.90
30047;DHT22;16878;52.542;13.426;2023-02-18T09:03:33;8.00;99.90
30047;DHT22;16878;52.542;13.426;2023-02-18T09:05:59;8.00;99.90
30047;DHT22;16878;52.542;13.426;2023-02-18T09:08:25;8.10;99.90
30047;DHT22;16878;52.542;13.426;2023-02-18T09:10:58;8.00;99.90
30047;DHT22;16878;52.542;13.426;2023-02-18T09:13:24;8.00;99.90
30047;DHT22;16878;52.542;13.426;2023-02-18T09:16:02;8.00;99.90
30047;DHT22;16878;52.542;13.426;2023-02-18T09:18:29;8.10;99.90
30047;DHT22;16878;52.542;13.426;2023-02-18T09:20:57;8.20;99.90
30047;DHT22;16878;52.542;13.426;2023-02-18T09:23:25;8.20;99.90
30047;DHT22;16878;52.542;13.426;2023-02-18T09:25:51;8.20;99.90
30047;DHT22;16878;52.542;13.426;2023-02-18T09:28:17;8.30;99.90
30047;DHT22;16878;52.542;13.426;2023-02-18T09:30:42;8.40;99.90
30047;DHT22;16878;52.542;13.426;2023-02-18T09:33:08;8.30;99.90
30047;DHT22;16878;52.542;13.426;2023-02-18T09:35:38;8.40;99.90
30047;DHT22;16878;52.542;13.426;2023-02-18T09:38:04;8.40;99.90
30047;DHT22;16878;52.542;13.426;2023-02-18T09:40:31;8.40;99.90
30047;DHT22;16878;52.542;13.426;2023-02-18T09:43:00;8.40;99.90
30047;DHT22;16878;52.542;13.426;2023-02-18T09:45:26;8.40;99.90
30047;DHT22;16878;52.542;13.426;2023-02-18T09:47:53;8.40;99.90
30047;DHT22;16878;52.542;13.426;2023-02-18T09:50:31;8.60;99.90
30047;DHT22;16878;52.542;13.426;2023-02-18T09:52:59;8.60;99.90
30047;DHT22;16878;52.542;13.426;2023-02-18T09:55:29;8.60;99.90
30047;DHT22;16878;52.542;13.426;2023-02-18T09:58:00;8.60;99.90
30047;DHT22;16878;52.542;13.426;2023-02-18T10:03:05;8.40;99.90
30047;DHT22;16878;52.542;13.426;2023-02-18T10:05:33;8.40;99.90
30047;DHT22;16878;52.542;13.426;2023-02-18T10:08:21;8.30;99.90
30047;DHT22;16878;52.542;13.426;2023-02-18T10:10:49;8.30;99.90
30047;DHT22;16878;52.542;13.426;2023-02-18T10:13:18;8.30;99.90
30047;DHT22;16878;52.542;13.426;2023-02-18T10:15:44;8.20;99.90
30047;DHT22;16878;52.542;13.426;2023-02-18T10:18:39;8.10;99.90
30047;DHT22;16878;52.542;13.426;2023-02-18T10:21:12;8.10;99.90
30047;DHT22;16878;52.542;13.426;2023-02-18T10:23:42;8.10;99.90
30047;DHT22;16878;52.542;13.426;2023-02-18T10:26:15;8.00;99.90
30047;DHT22;16878;52.542;13.426;2023-02-18T10:28:42;8.00;99.90
30047;DHT22;16878;52.542;13.426;2023-02-18T10:31:11;8.00;99.90
30047;DHT22;16878;52.542;13.426;2023-02-18T10:33:58;8.10;99.90
30047;DHT22;16878;52.542;13.426;2023-02-18T10:36:45;8.10;99.90
30047;DHT22;16878;52.542;13.426;2023-02-18T10:39:36;8.10;99.90
30047;DHT22;16878;52.542;13.426;2023-02-18T10:50:44;8.20;99.90
30047;DHT22;16878;52.542;13.426;2023-02-18T10:53:30;8.20;99.90
30047;DHT22;16878;52.542;13.426;2023-02-18T10:55:58;8.20;99.90
30047;DHT22;16878;52.542;13.426;2023-02-18T10:58:42;8.20;99.90
30047;DHT22;16878;52.542;13.426;2023-02-18T11:01:16;8.20;99.90
30047;DHT22;16878;52.542;13.426;2023-02-18T11:03:49;8.10;99.90
30047;DHT22;16878;52.542;13.426;2023-02-18T11:06:37;8.00;99.90
30047;DHT22;16878;52.542;13.426;2023-02-18T11:09:05;8.10;99.90
30047;DHT22;16878;52.542;13.426;2023-02-18T11:11:39;8.10;99.90
30047;DHT22;16878;52.542;13.426;2023-02-18T11:14:07;8.10;99.90
30047;DHT22;16878;52.542;13.426;2023-02-18T11:16:38;8.20;99.90
30047;DHT22;16878;52.542;13.426;2023-02-18T11:19:03;8.30;99.90
30047;DHT22;16878;52.542;13.426;2023-02-18T11:21:35;8.30;99.90
30047;DHT22;16878;52.542;13.426;2023-02-18T11:24:15;8.20;99.90
30047;DHT22;16878;52.542;13.426;2023-02-18T11:26:42;8.30;99.90
30047;DHT22;16878;52.542;13.426;2023-02-18T11:29:18;8.30;99.90
30047;DHT22;16878;52.542;13.426;2023-02-18T11:31:48;8.30;99.90
30047;DHT22;16878;52.542;13.426;2023-02-18T11:34:25;8.20;99.90
30047;DHT22;16878;52.542;13.426;2023-02-18T11:36:53;8.20;99.90
30047;DHT22;16878;52.542;13.426;2023-02-18T11:39:22;8.20;99.90
30047;DHT22;16878;52.542;13.426;2023-02-18T11:42:05;8.20;99.90
30047;DHT22;16878;52.542;13.426;2023-02-18T11:44:47;8.10;99.90
30047;DHT22;16878;52.542;13.426;2023-02-18T11:49:41;8.10;99.90
30047;DHT22;16878;52.542;13.426;2023-02-18T11:52:22;8.20;99.90
30047;DHT22;16878;52.542;13.426;2023-02-18T11:55:23;8.10;99.90
30047;DHT22;16878;52.542;13.426;2023-02-18T11:58:04;8.10;99.90
30047;DHT22;16878;52.542;13.426;2023-02-18T12:00:49;8.10;99.90
30047;DHT22;16878;52.542;13.426;2023-02-18T12:03:37;8.20;99.90
30047;DHT22;16878;52.542;13.426;2023-02-18T12:06:26;8.30;99.90
30047;DHT22;16878;52.542;13.426;2023-02-18T12:11:52;8.40;99.90
30047;DHT22;16878;52.542;13.426;2023-02-18T12:14:21;8.50;99.90
30047;DHT22;16878;52.542;13.426;2023-02-18T12:26:04;8.60;99.90
30047;DHT22;16878;52.542;13.426;2023-02-18T12:36:31;8.70;99.90
30047;DHT22;16878;52.542;13.426;2023-02-18T12:44:40;8.90;99.90
30047;DHT22;16878;52.542;13.426;2023-02-18T12:52:51;9.10;99.90
30047;DHT22;16878;52.542;13.426;2023-02-18T12:58:01;9.30;99.90
30047;DHT22;16878;52.542;13.426;2023-02-18T13:03:21;9.40;99.90
30047;DHT22;16878;52.542;13.426;2023-02-18T13:08:40;9.60;99.90
30047;DHT22;16878;52.542;13.426;2023-02-18T13:11:39;9.70;99.90
30047;DHT22;16878;52.542;13.426;2023-02-18T13:14:20;9.80;99.90
30047;DHT22;16878;52.542;13.426;2023-02-18T13:16:51;9.80;99.90
30047;DHT22;16878;52.542;13.426;2023-02-18T13:21:45;9.90;99.90
30047;DHT22;16878;52.542;13.426;2023-02-18T13:24:36;9.90;99.90
30047;DHT22;16878;52.542;13.426;2023-02-18T13:32:42;10.40;99.90
30047;DHT22;16878;52.542;13.426;2023-02-18T13:40:24;10.30;99.90
30047;DHT22;16878;52.542;13.426;2023-02-18T13:42:52;10.20;99.90
30047;DHT22;16878;52.542;13.426;2023-02-18T13:45:29;10.10;99.90
30047;DHT22;16878;52.542;13.426;2023-02-18T13:47:56;10.20;99.90
30047;DHT22;16878;52.542;13.426;2023-02-18T13:50:27;10.20;99.90
30047;DHT22;16878;52.542;13.426;2023-02-18T13:53:13;10.20;99.90
30047;DHT22;16878;52.542;13.426;2023-02-18T13:58:48;10.20;99.90
30047;DHT22;16878;52.542;13.426;2023-02-18T14:04:01;10.20;99.90
30047;DHT22;16878;52.542;13.426;2023-02-18T14:06:31;10.20;99.90
30047;DHT22;16878;52.542;13.426;2023-02-18T14:09:15;10.20;99.90
30047;DHT22;16878;52.542;13.426;2023-02-18T14:11:57;10.20;99.90
30047;DHT22;16878;52.542;13.426;2023-02-18T14:14:39;10.20;99.90
30047;DHT22;16878;52.542;13.426;2023-02-18T14:22:45;10.10;99.90
30047;DHT22;16878;52.542;13.426;2023-02-18T14:27:38;10.10;99.90
30047;DHT22;16878;52.542;13.426;2023-02-18T14:32:43;10.20;99.90
30047;DHT22;16878;52.542;13.426;2023-02-18T14:37:57;10.20;99.90
30047;DHT22;16878;52.542;13.426;2023-02-18T14:43:36;10.30;99.90
30047;DHT22;16878;52.542;13.426;2023-02-18T14:51:39;10.20;99.90
30047;DHT22;16878;52.542;13.426;2023-02-18T14:54:13;10.20;99.90
30047;DHT22;16878;52.542;13.426;2023-02-18T14:56:56;10.20;99.90
30047;DHT22;16878;52.542;13.426;2023-02-18T14:59:26;10.20;99.90
30047;DHT22;16878;52.542;13.426;2023-02-18T15:01:54;10.20;99.90
30047;DHT22;16878;52.542;13.426;2023-02-18T15:04:21;10.20;99.90
30047;DHT22;16878;52.542;13.426;2023-02-18T15:07:01;10.20;99.90
30047;DHT22;16878;52.542;13.426;2023-02-18T15:09:31;10.10;99.90
30047;DHT22;16878;52.542;13.426;2023-02-18T15:12:03;10.10;99.90
30047;DHT22;16878;52.542;13.426;2023-02-18T15:16:59;10.10;99.90
30047;DHT22;16878;52.542;13.426;2023-02-18T15:19:31;10.10;99.90
30047;DHT22;16878;52.542;13.426;2023-02-18T15:22:00;10.10;99.90
30047;DHT22;16878;52.542;13.426;2023-02-18T15:24:36;10.10;99.90
30047;DHT22;16878;52.542;13.426;2023-02-18T15:27:37;10.10;99.90
30047;DHT22;16878;52.542;13.426;2023-02-18T15:30:28;10.10;99.90
30047;DHT22;16878;52.542;13.426;2023-02-18T15:32:59;10.10;99.90
30047;DHT22;16878;52.542;13.426;2023-02-18T15:35:28;10.10;99.90
30047;DHT22;16878;52.542;13.426;2023-02-18T15:37:58;10.30;99.90
30047;DHT22;16878;52.542;13.426;2023-02-18T15:40:30;10.30;99.90
30047;DHT22;16878;52.542;13.426;2023-02-18T15:43:03;10.40;99.90
30047;DHT22;16878;52.542;13.426;2023-02-18T15:45:32;10.30;99.90
30047;DHT22;16878;52.542;13.426;2023-02-18T15:47:59;10.40;99.90
30047;DHT22;16878;52.542;13.426;2023-02-18T15:50:32;10.30;99.90
30047;DHT22;16878;52.542;13.426;2023-02-18T15:53:07;10.30;99.90
30047;DHT22;16878;52.542;13.426;2023-02-18T15:55:35;10.30;99.90
30047;DHT22;16878;52.542;13.426;2023-02-18T15:58:28;10.20;99.90
30047;DHT22;16878;52.542;13.426;2023-02-18T16:00:56;10.20;99.90
30047;DHT22;16878;52.542;13.426;2023-02-18T16:09:07;10.10;99.90
30047;DHT22;16878;52.542;13.426;2023-02-18T16:11:41;10.10;99.90
30047;DHT22;16878;52.542;13.426;2023-02-18T16:19:56;10.10;99.90
30047;DHT22;16878;52.542;13.426;2023-02-18T16:27:36;10.00;99.90
30047;DHT22;16878;52.542;13.426;2023-02-18T16:30:14;10.00;99.90
30047;DHT22;16878;52.542;13.426;2023-02-18T16:32:41;9.90;99.90
30047;DHT22;16878;52.542;13.426;2023-02-18T16:35:08;10.00;99.90
30047;DHT22;16878;52.542;13.426;2023-02-18T16:37:34;10.00;99.90
30047;DHT22;16878;52.542;13.426;2023-02-18T16:42:40;9.90;99.90
30047;DHT22;16878;52.542;13.426;2023-02-18T16:45:10;9.70;99.90
30047;DHT22;16878;52.542;13.426;2023-02-18T16:47:37;9.50;99.90
30047;DHT22;16878;52.542;13.426;2023-02-18T16:50:26;9.40;99.90
30047;DHT22;16878;52.542;13.426;2023-02-18T16:52:51;9.20;99.90
30047;DHT22;16878;52.542;13.426;2023-02-18T16:55:23;9.10;99.90
30047;DHT22;16878;52.542;13.426;2023-02-18T16:57:49;9.10;99.90
30047;DHT22;16878;52.542;13.426;2023-02-18T17:00:16;9.00;99.90
30047;DHT22;16878;52.542;13.426;2023-02-18T17:02:47;8.90;99.90
30047;DHT22;16878;52.542;13.426;2023-02-18T17:05:23;8.90;99.90
30047;DHT22;16878;52.542;13.426;2023-02-18T17:07:51;8.80;99.90
30047;DHT22;16878;52.542;13.426;2023-02-18T17:10:18;8.80;99.90
30047;DHT22;16878;52.542;13.426;2023-02-18T17:12:44;8.80;99.90
30047;DHT22;16878;52.542;13.426;2023-02-18T17:17:40;8.70;99.90
30047;DHT22;16878;52.542;13.426;2023-02-18T17:20:07;8.60;99.90
30047;DHT22;16878;52.542;13.426;2023-02-18T17:22:33;8.60;99.90
30047;DHT22;16878;52.542;13.426;2023-02-18T17:24:59;8.50;99.90
30047;DHT22;16878;52.542;13.426;2023-02-18T17:27:31;8.50;99.90
30047;DHT22;16878;52.542;13.426;2023-02-18T17:30:03;8.50;99.90
30047;DHT22;16878;52.542;13.426;2023-02-18T17:32:28;8.40;99.90
30047;DHT22;16878;52.542;13.426;2023-02-18T17:34:54;8.40;99.90
30047;DHT22;16878;52.542;13.426;2023-02-18T17:37:20;8.40;99.90
30047;DHT22;16878;52.542;13.426;2023-02-18T17:39:46;8.30;99.90
30047;DHT22;16878;52.542;13.426;2023-02-18T17:42:12;8.30;99.90
30047;DHT22;16878;52.542;13.426;2023-02-18T17:44:39;8.30;99.90
30047;DHT22;16878;52.542;13.426;2023-02-18T17:47:05;8.30;99.90
30047;DHT22;16878;52.542;13.426;2023-02-18T17:49:30;8.30;99.90
30047;DHT22;16878;52.542;13.426;2023-02-18T17:51:56;8.20;99.90
30047;DHT22;16878;52.542;13.426;2023-02-18T17:54:22;8.20;99.90
30047;DHT22;16878;52.542;13.426;2023-02-18T17:56:48;8.20;99.90
30047;DHT22;16878;52.542;13.426;2023-02-18T17:59:14;8.20;99.90
30047;DHT22;16878;52.542;13.426;2023-02-18T18:01:41;8.20;99.90
30047;DHT22;16878;52.542;13.426;2023-02-18T18:04:15;8.20;99.90
30047;DHT22;16878;52.542;13.426;2023-02-18T18:06:41;8.20;99.90
30047;DHT22;16878;52.542;13.426;2023-02-18T18:09:07;8.20;99.90
30047;DHT22;16878;52.542;13.426;2023-02-18T18:11:34;8.20;99.90
30047;DHT22;16878;52.542;13.426;2023-02-18T18:14:00;8.10;99.90
30047;DHT22;16878;52.542;13.426;2023-02-18T18:16:26;8.10;99.90
30047;DHT22;16878;52.542;13.426;2023-02-18T18:18:52;8.10;99.90